Time;durP1;ratioP1;P1;durP2;ratioP2;P2;SDS_P1;SDS_P2;PMS_P1;PMS_P2;Temp;Humidity;BMP_temperature;BMP_pressure;BME280_temperature;BME280_humidity;BME280_pressure;Samples;Min_cycle;Max_cycle;Signal;HPM_P1;HPM_P2
2023/04/12 00:02:07;;;;;;;8.63;2.55;;;7.30;99.90;;;;;;5066547;28;20054;-66
2023/04/12 00:04:34;;;;;;;9.77;2.80;;;7.40;99.90;;;;;;5067102;28;20048;-65
2023/04/12 00:07:01;;;;;;;7.05;3.00;;;7.40;99.90;;;;;;5067015;28;20039;-66
2023/04/12 00:09:29;;;;;;;10.00;3.00;;;7.40;99.90;;;;;;5066268;28;20043;-66
2023/04/12 00:11:58;;;;;;;9.32;3.05;;;7.50;99.90;;;;;;5064798;28;20135;-66
2023/04/12 00:14:26;;;;;;;13.30;3.50;;;7.50;99.90;;;;;;5063415;28;20048;-66
2023/04/12 00:16:52;;;;;;;8.02;2.45;;;7.60;99.90;;;;;;5067022;28;20052;-66
2023/04/12 00:19:18;;;;;;;5.90;2.25;;;7.60;99.90;;;;;;5066967;28;20032;-66
2023/04/12 00:21:44;;;;;;;8.30;2.55;;;7.70;99.90;;;;;;5061238;28;20047;-66
2023/04/12 00:24:10;;;;;;;8.55;2.75;;;7.70;99.90;;;;;;5066916;28;20355;-66
2023/04/12 00:26:35;;;;;;;5.65;2.42;;;7.90;99.90;;;;;;5065326;28;20488;-66
2023/04/12 00:29:01;;;;;;;10.80;2.90;;;7.90;99.90;;;;;;5049292;28;20040;-66
2023/04/12 00:31:28;;;;;;;9.48;2.80;;;7.90;99.90;;;;;;5064308;28;20167;-66
2023/04/12 00:33:53;;;;;;;6.00;2.72;;;7.90;99.90;;;;;;5066306;28;20104;-66
2023/04/12 00:36:20;;;;;;;7.15;2.83;;;7.90;99.90;;;;;;5062161;28;20116;-66
2023/04/12 00:38:45;;;;;;;7.97;3.47;;;8.00;99.90;;;;;;5048088;28;20478;-66
2023/04/12 00:41:13;;;;;;;9.60;2.65;;;8.00;99.90;;;;;;5064999;28;20055;-66
2023/04/12 00:43:40;;;;;;;5.43;2.65;;;8.00;99.90;;;;;;5042681;28;20050;-66
2023/04/12 00:46:06;;;;;;;4.43;2.30;;;8.00;99.90;;;;;;5063675;28;20079;-66
2023/04/12 00:48:33;;;;;;;8.15;2.78;;;8.00;99.90;;;;;;5064810;28;20036;-66
2023/04/12 00:51:00;;;;;;;15.20;3.25;;;8.00;99.90;;;;;;5066436;28;20044;-66
2023/04/12 00:53:27;;;;;;;9.40;3.08;;;8.10;99.90;;;;;;5062322;28;20028;-66
2023/04/12 00:55:53;;;;;;;5.03;2.80;;;8.10;99.90;;;;;;5059792;28;20128;-66
2023/04/12 00:58:23;;;;;;;10.00;3.10;;;8.20;99.90;;;;;;5064180;28;20555;-66
2023/04/12 01:00:51;;;;;;;7.90;2.75;;;8.20;99.90;;;;;;5065939;28;20028;-66
2023/04/12 01:03:26;;;;;;;8.00;2.90;;;8.20;99.90;;;;;;5064494;28;20040;-66
2023/04/12 01:06:12;;;;;;;12.15;3.35;;;8.30;99.90;;;;;;5062036;28;20036;-66
2023/04/12 01:09:19;;;;;;;8.98;2.95;;;8.30;99.90;;;;;;5065519;28;20052;-66
2023/04/12 01:11:57;;;;;;;7.53;3.10;;;8.30;99.90;;;;;;5061773;28;20389;-66
2023/04/12 01:14:50;;;;;;;5.82;3.13;;;8.30;99.90;;;;;;5064051;28;20605;-66
2023/04/12 01:17:19;;;;;;;;;;;8.30;99.90;;;;;;5062810;28;20037;-67
2023/04/12 01:20:00;;;;;;;9.90;3.15;;;8.20;99.90;;;;;;5062342;28;20007;-66
2023/04/12 01:22:54;;;;;;;8.48;3.10;;;8.20;99.90;;;;;;5064580;28;20047;-66
2023/04/12 01:25:28;;;;;;;8.27;2.97;;;8.20;99.90;;;;;;5063223;28;20067;-66
2023/04/12 01:28:01;;;;;;;7.97;2.72;;;8.20;99.90;;;;;;5065123;28;20248;-66
2023/04/12 01:30:29;;;;;;;8.40;3.30;;;8.20;99.90;;;;;;5062644;28;20111;-66
2023/04/12 01:32:58;;;;;;;11.75;3.47;;;8.20;99.90;;;;;;5064609;28;20032;-66
2023/04/12 01:35:29;;;;;;;11.38;3.47;;;8.20;99.90;;;;;;5063675;28;20343;-66
2023/04/12 01:37:57;;;;;;;7.80;2.75;;;8.20;99.90;;;;;;5047209;28;20052;-66
2023/04/12 01:40:24;;;;;;;6.75;3.40;;;8.20;99.90;;;;;;5061199;28;20856;-66
2023/04/12 01:42:49;;;;;;;10.57;3.60;;;8.10;99.90;;;;;;5064463;28;20127;-66
2023/04/12 01:45:15;;;;;;;7.63;3.30;;;8.10;99.90;;;;;;5065412;28;20123;-66
2023/04/12 01:47:41;;;;;;;9.23;3.13;;;8.10;99.90;;;;;;5042703;28;20116;-66
2023/04/12 01:50:34;;;;;;;11.68;3.00;;;8.10;99.90;;;;;;5063277;28;20367;-66
2023/04/12 01:53:47;;;;;;;6.80;2.65;;;8.10;99.90;;;;;;5063103;28;20533;-66
2023/04/12 01:56:15;;;;;;;9.60;3.47;;;8.10;99.90;;;;;;5048609;28;20055;-66
2023/04/12 01:58:43;;;;;;;9.35;3.50;;;8.00;99.90;;;;;;5064561;28;20041;-66
2023/04/12 02:01:12;;;;;;;9.55;3.50;;;8.00;99.90;;;;;;5064259;28;20401;-66
2023/04/12 02:03:41;;;;;;;6.53;2.97;;;8.00;99.90;;;;;;5045877;28;20068;-66
2023/04/12 02:06:07;;;;;;;7.32;3.13;;;8.00;99.90;;;;;;5061852;28;20036;-66
2023/04/12 02:08:33;;;;;;;11.63;3.67;;;8.00;99.90;;;;;;5063405;28;20032;-66
2023/04/12 02:10:59;;;;;;;9.93;3.45;;;8.00;99.90;;;;;;5063609;28;20048;-66
2023/04/12 02:13:25;;;;;;;8.07;3.20;;;8.00;99.90;;;;;;5064327;28;20039;-66
2023/04/12 02:15:53;;;;;;;8.48;3.55;;;8.00;99.90;;;;;;5063747;28;20447;-66
2023/04/12 02:18:19;;;;;;;8.02;3.00;;;8.00;99.90;;;;;;5063938;28;20738;-66
2023/04/12 02:20:45;;;;;;;10.38;3.35;;;8.00;99.90;;;;;;5061792;28;20037;-66
2023/04/12 02:23:11;;;;;;;10.07;3.53;;;8.00;99.90;;;;;;5063566;28;20038;-66
2023/04/12 02:25:38;;;;;;;12.73;3.58;;;7.90;99.90;;;;;;5062989;28;20119;-66
2023/04/12 02:28:05;;;;;;;5.88;3.42;;;7.90;99.90;;;;;;5061827;28;20036;-66
2023/04/12 02:30:31;;;;;;;11.85;3.60;;;7.90;99.90;;;;;;5045857;28;20475;-66
2023/04/12 02:32:57;;;;;;;9.15;3.28;;;7.90;99.90;;;;;;5064116;28;20039;-66
2023/04/12 02:35:23;;;;;;;11.05;3.47;;;7.80;99.90;;;;;;5062269;28;20048;-66
2023/04/12 02:37:50;;;;;;;9.93;3.35;;;7.80;99.90;;;;;;5047347;28;20076;-66
2023/04/12 02:40:16;;;;;;;10.48;3.20;;;7.80;99.90;;;;;;5043959;28;20044;-66
2023/04/12 02:42:44;;;;;;;11.55;3.35;;;7.80;99.90;;;;;;5062659;28;20044;-66
2023/04/12 02:45:10;;;;;;;5.25;3.08;;;7.80;99.90;;;;;;5063038;28;21339;-66
2023/04/12 02:47:36;;;;;;;9.40;3.40;;;7.70;99.90;;;;;;5063230;28;20041;-66
2023/04/12 02:50:03;;;;;;;6.90;3.30;;;7.70;99.90;;;;;;5063461;28;20036;-66
2023/04/12 02:52:29;;;;;;;6.38;2.47;;;7.80;99.90;;;;;;5059228;28;20067;-66
2023/04/12 02:54:55;;;;;;;8.13;3.33;;;7.80;99.90;;;;;;5060898;28;20113;-66
2023/04/12 02:57:22;;;;;;;6.15;2.90;;;7.80;99.90;;;;;;5058790;28;20048;-66
2023/04/12 02:59:52;;;;;;;4.32;2.65;;;7.90;99.90;;;;;;5061426;28;20477;-66
2023/04/12 03:02:19;;;;;;;6.30;2.60;;;8.00;99.90;;;;;;5059301;28;20048;-66
2023/04/12 03:04:45;;;;;;;7.75;2.92;;;7.90;99.90;;;;;;5060587;28;20045;-66
2023/04/12 03:07:12;;;;;;;6.15;2.45;;;8.00;99.90;;;;;;5060866;28;20075;-66
2023/04/12 03:09:41;;;;;;;6.35;2.35;;;8.00;99.90;;;;;;5063250;28;20175;-66
2023/04/12 03:12:07;;;;;;;12.23;2.63;;;7.90;99.90;;;;;;5059725;28;20505;-66
2023/04/12 03:14:33;;;;;;;3.72;2.13;;;7.90;99.90;;;;;;5045947;28;20127;-66
2023/04/12 03:16:58;;;;;;;5.32;2.22;;;8.00;99.90;;;;;;5078976;28;20120;-66
2023/04/12 03:19:24;;;;;;;4.90;2.63;;;8.00;99.90;;;;;;5046092;28;20040;-66
2023/04/12 03:21:50;;;;;;;6.35;2.45;;;8.00;99.90;;;;;;5063990;28;20036;-66
2023/04/12 03:24:16;;;;;;;6.45;1.92;;;8.10;99.90;;;;;;5045012;28;20093;-66
2023/04/12 03:26:42;;;;;;;4.60;2.45;;;8.10;99.90;;;;;;5065111;28;20036;-66
2023/04/12 03:29:08;;;;;;;4.65;2.70;;;8.10;99.90;;;;;;5066409;28;20037;-66
2023/04/12 03:31:34;;;;;;;7.00;2.72;;;8.10;99.90;;;;;;5065478;28;20043;-66
2023/04/12 03:34:01;;;;;;;4.15;1.90;;;8.20;99.90;;;;;;5067437;28;20409;-66
2023/04/12 03:36:26;;;;;;;7.05;2.67;;;8.20;99.90;;;;;;5065862;28;20068;-66
2023/04/12 03:38:52;;;;;;;4.43;2.20;;;8.20;99.90;;;;;;5061468;28;20486;-66
2023/04/12 03:41:22;;;;;;;8.30;2.45;;;8.10;99.90;;;;;;5066666;28;20079;-66
2023/04/12 03:43:48;;;;;;;4.18;2.30;;;8.10;99.90;;;;;;5076876;28;20045;-66
2023/04/12 03:46:14;;;;;;;3.83;2.53;;;8.10;99.90;;;;;;5080777;28;20090;-66
2023/04/12 03:48:41;;;;;;;4.93;2.80;;;8.10;99.90;;;;;;5065487;28;20036;-66
2023/04/12 03:51:10;;;;;;;8.10;2.80;;;8.10;99.90;;;;;;5065147;28;20566;-66
2023/04/12 03:53:37;;;;;;;7.32;2.92;;;8.00;99.90;;;;;;5067750;28;20503;-66
2023/04/12 03:56:03;;;;;;;8.07;3.08;;;8.00;99.90;;;;;;5064681;28;20130;-66
2023/04/12 03:58:29;;;;;;;5.00;2.50;;;8.00;99.90;;;;;;5064999;28;20082;-66
2023/04/12 04:00:56;;;;;;;14.30;3.45;;;8.00;99.90;;;;;;5064419;28;20041;-66
2023/04/12 04:03:25;;;;;;;6.10;2.33;;;8.10;99.90;;;;;;5067994;28;20036;-66
2023/04/12 04:05:52;;;;;;;5.13;2.42;;;8.00;99.90;;;;;;5064401;28;20036;-66
2023/04/12 04:08:18;;;;;;;6.32;2.72;;;8.20;99.90;;;;;;5066453;28;20048;-66
2023/04/12 04:10:45;;;;;;;9.23;3.03;;;8.10;99.90;;;;;;5063133;28;20044;-66
2023/04/12 04:13:10;;;;;;;4.88;2.50;;;8.10;99.90;;;;;;5066508;28;20045;-66
2023/04/12 04:15:36;;;;;;;4.40;2.40;;;8.10;99.90;;;;;;5065227;28;20045;-66
2023/04/12 04:18:02;;;;;;;5.55;3.20;;;8.10;99.90;;;;;;5066180;28;20067;-66
2023/04/12 04:20:27;;;;;;;5.32;2.80;;;8.10;99.90;;;;;;5065337;28;20043;-66
2023/04/12 04:22:53;;;;;;;7.13;2.67;;;8.10;99.90;;;;;;5066678;28;20036;-66
2023/04/12 04:25:19;;;;;;;6.38;2.97;;;8.00;99.90;;;;;;5063741;28;20031;-66
2023/04/12 04:27:45;;;;;;;7.05;2.60;;;8.00;99.90;;;;;;5066514;28;20036;-66
2023/04/12 04:30:17;;;;;;;4.45;2.50;;;8.00;99.90;;;;;;5062920;28;20043;-66
2023/04/12 04:32:43;;;;;;;5.60;2.78;;;8.00;99.90;;;;;;5065777;28;20044;-66
2023/04/12 04:35:08;;;;;;;7.38;2.50;;;7.90;99.90;;;;;;5061664;28;20105;-66
2023/04/12 04:37:34;;;;;;;7.57;2.97;;;7.90;99.90;;;;;;5063415;28;20655;-66
2023/04/12 04:40:07;;;;;;;8.85;2.83;;;7.90;99.90;;;;;;5066059;28;20078;-66
2023/04/12 04:42:32;;;;;;;4.85;2.47;;;7.80;99.90;;;;;;5046852;28;20066;-66
2023/04/12 04:45:11;;;;;;;8.85;2.53;;;7.70;99.90;;;;;;5064083;28;20738;-66
2023/04/12 04:47:38;;;;;;;4.97;2.53;;;7.70;99.90;;;;;;5064989;28;20105;-66
2023/04/12 04:50:04;;;;;;;3.42;2.35;;;7.70;99.90;;;;;;5063381;28;20555;-66
2023/04/12 04:52:30;;;;;;;6.35;2.60;;;7.60;99.90;;;;;;5063043;28;20045;-66
2023/04/12 04:54:56;;;;;;;7.18;2.53;;;7.70;99.90;;;;;;5064815;28;20067;-67
2023/04/12 04:57:23;;;;;;;4.25;2.08;;;7.70;99.90;;;;;;5064449;28;20048;-66
2023/04/12 04:59:49;;;;;;;6.68;2.80;;;7.60;99.90;;;;;;5062489;28;20090;-67
2023/04/12 05:02:15;;;;;;;4.63;2.45;;;7.60;99.90;;;;;;5063403;28;20079;-66
2023/04/12 05:04:41;;;;;;;7.55;2.50;;;7.60;99.90;;;;;;5066175;28;20083;-66
2023/04/12 05:07:07;;;;;;;2.85;1.73;;;7.60;99.90;;;;;;5063510;28;20115;-66
2023/04/12 05:09:32;;;;;;;4.88;2.22;;;7.60;99.90;;;;;;5059810;28;20112;-66
2023/04/12 05:11:58;;;;;;;3.83;2.13;;;7.60;99.90;;;;;;5062658;28;20048;-66
2023/04/12 05:14:24;;;;;;;6.45;2.13;;;7.50;99.90;;;;;;5062010;28;20723;-67
2023/04/12 05:16:50;;;;;;;6.88;2.22;;;7.60;99.90;;;;;;5063193;28;20036;-67
2023/04/12 05:19:15;;;;;;;4.65;2.20;;;7.50;99.90;;;;;;5064143;28;20051;-67
2023/04/12 05:21:41;;;;;;;5.00;2.13;;;7.40;99.90;;;;;;5064985;28;20040;-67
2023/04/12 05:24:07;;;;;;;3.75;2.15;;;7.40;99.90;;;;;;5059492;28;20436;-68
2023/04/12 05:26:33;;;;;;;5.63;2.30;;;7.40;99.90;;;;;;5062156;28;20094;-68
2023/04/12 05:29:00;;;;;;;4.97;2.38;;;7.40;99.90;;;;;;5061712;28;20044;-67
2023/04/12 05:31:27;;;;;;;5.80;2.28;;;7.40;99.90;;;;;;5064869;28;20101;-68
2023/04/12 05:33:53;;;;;;;11.05;3.13;;;7.30;99.90;;;;;;5063885;28;20087;-67
2023/04/12 05:36:20;;;;;;;7.18;2.38;;;7.30;99.90;;;;;;5064627;28;20056;-67
2023/04/12 05:38:45;;;;;;;5.22;2.47;;;7.30;99.90;;;;;;5064015;28;20456;-67
2023/04/12 05:41:11;;;;;;;8.15;2.75;;;7.30;99.90;;;;;;5056158;28;20044;-67
2023/04/12 05:43:37;;;;;;;4.95;2.10;;;7.30;99.90;;;;;;5059513;28;20033;-67
2023/04/12 05:46:08;;;;;;;4.47;2.60;;;7.30;99.90;;;;;;5061756;28;20512;-67
2023/04/12 05:48:34;;;;;;;8.10;2.70;;;7.20;99.90;;;;;;5064255;28;20075;-68
2023/04/12 05:51:01;;;;;;;6.53;2.40;;;7.30;99.90;;;;;;5059829;28;20060;-67
2023/04/12 05:53:28;;;;;;;7.63;2.78;;;7.30;99.90;;;;;;5056306;28;20528;-67
2023/04/12 05:55:54;;;;;;;6.47;2.88;;;7.20;99.90;;;;;;5062908;28;20060;-67
2023/04/12 05:58:20;;;;;;;5.30;2.58;;;7.20;99.90;;;;;;5063204;28;20044;-67
2023/04/12 06:00:45;;;;;;;6.65;3.00;;;7.20;99.90;;;;;;5024517;28;20086;-67
2023/04/12 06:03:11;;;;;;;5.53;2.72;;;7.20;99.90;;;;;;5065990;28;20064;-67
2023/04/12 06:05:38;;;;;;;5.70;2.92;;;7.20;99.90;;;;;;5062430;28;20040;-67
2023/04/12 06:08:07;;;;;;;11.27;2.97;;;7.10;99.90;;;;;;5066239;28;20052;-67
2023/04/12 06:10:33;;;;;;;7.68;2.92;;;7.20;99.90;;;;;;5059474;28;20120;-68
2023/04/12 06:12:59;;;;;;;7.53;2.85;;;7.10;99.90;;;;;;5063738;28;20295;-68
2023/04/12 06:15:25;;;;;;;7.63;3.08;;;7.20;99.90;;;;;;5061556;28;20063;-68
2023/04/12 06:17:50;;;;;;;9.18;2.67;;;7.10;99.90;;;;;;5061365;28;20165;-68
2023/04/12 06:20:16;;;;;;;12.55;3.25;;;7.10;99.90;;;;;;5057088;28;20120;-68
2023/04/12 06:22:42;;;;;;;6.40;2.60;;;7.10;99.90;;;;;;5063784;28;20044;-68
2023/04/12 06:25:08;;;;;;;6.65;2.60;;;7.10;99.90;;;;;;5061610;28;20500;-68
2023/04/12 06:27:33;;;;;;;5.78;2.60;;;7.10;99.90;;;;;;5060730;28;20029;-68
2023/04/12 06:29:59;;;;;;;5.95;3.13;;;7.10;99.90;;;;;;5063183;28;20036;-67
2023/04/12 06:32:25;;;;;;;8.18;2.92;;;7.10;99.90;;;;;;5059694;28;20037;-68
2023/04/12 06:34:51;;;;;;;6.60;2.80;;;7.10;99.90;;;;;;5059507;28;20540;-68
2023/04/12 06:37:17;;;;;;;11.07;3.45;;;7.00;99.90;;;;;;5062929;28;20288;-68
2023/04/12 06:39:43;;;;;;;7.88;2.95;;;7.00;99.90;;;;;;5061708;28;20785;-68
2023/04/12 06:42:08;;;;;;;5.75;2.60;;;7.00;99.90;;;;;;5060286;28;20048;-68
2023/04/12 06:44:34;;;;;;;4.82;3.05;;;7.00;99.90;;;;;;5061616;28;20089;-68
2023/04/12 06:47:00;;;;;;;6.65;2.90;;;7.00;99.90;;;;;;5061853;28;20068;-68
2023/04/12 06:49:26;;;;;;;7.50;3.22;;;7.00;99.90;;;;;;5060233;28;20568;-68
2023/04/12 06:51:51;;;;;;;8.48;3.05;;;7.00;99.90;;;;;;5068013;28;20087;-68
2023/04/12 06:54:17;;;;;;;8.90;2.90;;;7.00;99.90;;;;;;5068903;28;20098;-68
2023/04/12 06:56:43;;;;;;;5.85;2.67;;;7.00;99.90;;;;;;5066527;28;20048;-68
2023/04/12 06:59:08;;;;;;;5.35;2.97;;;7.00;99.90;;;;;;5072452;28;20077;-68
2023/04/12 07:01:34;;;;;;;9.50;3.30;;;7.00;99.90;;;;;;5072565;28;20040;-68
2023/04/12 07:04:00;;;;;;;7.18;3.10;;;7.00;99.90;;;;;;5073066;28;20547;-68
2023/04/12 07:06:29;;;;;;;7.95;3.63;;;7.00;99.90;;;;;;5072675;28;20071;-68
2023/04/12 07:08:55;;;;;;;2.85;2.33;;;7.00;99.90;;;;;;5072625;28;20044;-68
2023/04/12 07:11:21;;;;;;;8.85;3.00;;;7.00;99.90;;;;;;5073014;28;20037;-68
2023/04/12 07:13:47;;;;;;;5.50;3.33;;;7.00;99.90;;;;;;5072766;28;20564;-68
2023/04/12 07:16:13;;;;;;;4.90;2.72;;;7.00;99.90;;;;;;5073003;28;20119;-68
2023/04/12 07:18:39;;;;;;;6.30;3.10;;;7.00;99.90;;;;;;5072589;28;20119;-68
2023/04/12 07:21:05;;;;;;;7.50;3.05;;;7.00;99.90;;;;;;5071133;28;20051;-68
2023/04/12 07:23:31;;;;;;;9.82;3.38;;;7.00;99.90;;;;;;5072021;28;20032;-68
2023/04/12 07:26:00;;;;;;;6.53;3.38;;;7.00;99.90;;;;;;5072215;28;20039;-68
2023/04/12 07:28:27;;;;;;;7.90;3.58;;;7.00;99.90;;;;;;5070582;28;20127;-68
2023/04/12 07:30:52;;;;;;;6.80;3.65;;;7.00;99.90;;;;;;5058984;28;20041;-67
2023/04/12 07:33:18;;;;;;;8.48;3.63;;;7.10;99.90;;;;;;5044028;28;20348;-68
2023/04/12 07:35:44;;;;;;;11.65;3.35;;;7.00;99.90;;;;;;5072379;28;20036;-68
2023/04/12 07:38:10;;;;;;;6.38;4.10;;;7.10;99.90;;;;;;5072245;28;20047;-67
2023/04/12 07:40:35;;;;;;;4.30;3.53;;;7.10;99.90;;;;;;5071905;28;20076;-68
2023/04/12 07:43:01;;;;;;;6.70;3.58;;;7.10;99.90;;;;;;5071925;28;20374;-68
2023/04/12 07:45:28;;;;;;;8.30;3.85;;;7.10;99.90;;;;;;5070942;28;20033;-68
2023/04/12 07:47:53;;;;;;;4.63;3.60;;;7.10;99.90;;;;;;5072129;28;20032;-68
2023/04/12 07:50:19;;;;;;;8.02;4.15;;;7.10;99.90;;;;;;5072090;28;20037;-68
2023/04/12 07:52:45;;;;;;;9.45;3.80;;;7.10;99.90;;;;;;5070557;28;20044;-68
2023/04/12 07:55:10;;;;;;;8.13;4.40;;;7.10;99.90;;;;;;5070491;28;20497;-68
2023/04/12 07:57:36;;;;;;;8.18;3.95;;;7.10;99.90;;;;;;5071603;28;20068;-68
2023/04/12 08:00:04;;;;;;;9.82;4.95;;;7.10;99.90;;;;;;5070684;28;20036;-68
2023/04/12 08:02:30;;;;;;;7.22;4.25;;;7.00;99.90;;;;;;5064599;28;20049;-68
2023/04/12 08:04:56;;;;;;;8.63;4.20;;;7.10;99.90;;;;;;5069586;28;20047;-68
2023/04/12 08:07:22;;;;;;;7.32;4.13;;;7.00;99.90;;;;;;5071708;28;20036;-68
2023/04/12 08:09:48;;;;;;;8.95;4.20;;;7.10;99.90;;;;;;5070667;28;20425;-67
2023/04/12 08:12:14;;;;;;;9.57;4.57;;;7.10;99.90;;;;;;5071758;28;20141;-67
2023/04/12 08:14:40;;;;;;;10.15;4.18;;;7.10;99.90;;;;;;5071284;28;20048;-67
2023/04/12 08:17:06;;;;;;;7.30;4.03;;;7.10;99.90;;;;;;5071443;28;20040;-67
2023/04/12 08:19:32;;;;;;;6.40;4.40;;;7.10;99.90;;;;;;5071259;28;20032;-67
2023/04/12 08:21:58;;;;;;;9.18;4.68;;;7.10;99.90;;;;;;5070576;28;20037;-68
2023/04/12 08:24:23;;;;;;;7.97;4.47;;;7.20;99.90;;;;;;5071017;28;20041;-68
2023/04/12 08:26:52;;;;;;;9.35;4.63;;;7.20;99.90;;;;;;5070880;28;20119;-67
2023/04/12 08:29:18;;;;;;;6.57;3.85;;;7.20;99.90;;;;;;5064388;28;20489;-68
2023/04/12 08:31:44;;;;;;;6.15;4.20;;;7.30;99.90;;;;;;5070819;28;20076;-67
2023/04/12 08:34:10;;;;;;;5.07;3.88;;;7.30;99.90;;;;;;5070974;28;20054;-67
2023/04/12 08:36:35;;;;;;;6.55;4.00;;;7.30;99.90;;;;;;5071471;28;20482;-68
2023/04/12 08:39:02;;;;;;;5.93;4.15;;;7.40;99.90;;;;;;5071472;28;20478;-67
2023/04/12 08:41:27;;;;;;;7.65;3.53;;;7.40;99.90;;;;;;5071013;28;20485;-67
2023/04/12 08:43:56;;;;;;;5.15;3.40;;;7.40;99.90;;;;;;5035343;28;20063;-67
2023/04/12 08:46:22;;;;;;;4.57;3.45;;;7.40;99.90;;;;;;5071328;28;20033;-67
2023/04/12 08:48:53;;;;;;;5.50;3.38;;;7.40;99.90;;;;;;5071120;28;20551;-67
2023/04/12 08:51:21;;;;;;;3.92;3.53;;;7.50;99.90;;;;;;5065730;28;20048;-67
2023/04/12 08:53:47;;;;;;;5.32;3.40;;;7.60;99.90;;;;;;5070931;28;20032;-67
2023/04/12 08:56:13;;;;;;;6.88;3.95;;;7.70;99.90;;;;;;5070093;28;20083;-67
2023/04/12 08:58:41;;;;;;;3.78;3.30;;;7.80;99.90;;;;;;5070878;28;20064;-67
2023/04/12 09:01:12;;;;;;;4.40;3.65;;;7.80;99.90;;;;;;5068927;28;20436;-67
2023/04/12 09:03:39;;;;;;;4.33;3.63;;;7.90;99.90;;;;;;5067850;28;20049;-67
2023/04/12 09:06:05;;;;;;;4.55;3.33;;;7.80;99.90;;;;;;5070147;28;20047;-67
2023/04/12 09:08:31;;;;;;;5.10;3.60;;;7.90;99.90;;;;;;5069343;28;20048;-67
2023/04/12 09:10:57;;;;;;;8.30;3.55;;;7.90;99.90;;;;;;5070095;28;20052;-68
2023/04/12 09:13:38;;;;;;;5.03;3.28;;;7.90;99.90;;;;;;5068106;28;20059;-68
2023/04/12 09:16:04;;;;;;;5.47;3.97;;;7.80;99.90;;;;;;5069227;28;20036;-68
2023/04/12 09:18:30;;;;;;;6.85;4.60;;;7.80;99.90;;;;;;5069757;28;20041;-68
2023/04/12 09:21:07;;;;;;;7.40;4.50;;;7.80;99.90;;;;;;5034726;28;20046;-68
2023/04/12 09:23:35;;;;;;;9.57;5.07;;;7.70;99.90;;;;;;5066526;28;20044;-68
2023/04/12 09:26:00;;;;;;;7.93;5.47;;;7.80;99.90;;;;;;5069861;28;20028;-68
2023/04/12 09:28:28;;;;;;;9.02;5.78;;;7.80;99.90;;;;;;5068504;28;20102;-68
2023/04/12 09:30:56;;;;;;;8.52;5.40;;;7.80;99.90;;;;;;5068351;28;20047;-68
2023/04/12 09:33:44;;;;;;;8.63;5.53;;;7.80;99.90;;;;;;5069240;28;20039;-67
2023/04/12 09:36:14;;;;;;;8.57;6.60;;;7.90;99.90;;;;;;5067961;28;20044;-67
2023/04/12 09:38:41;;;;;;;7.18;5.97;;;8.00;99.90;;;;;;5068212;28;20040;-67
2023/04/12 09:41:18;;;;;;;8.35;6.07;;;8.00;99.90;;;;;;5060080;28;20035;-67
2023/04/12 09:43:44;;;;;;;9.18;6.70;;;8.00;99.90;;;;;;5065257;28;20096;-68
2023/04/12 09:46:12;;;;;;;10.68;7.15;;;8.00;99.90;;;;;;5070037;28;20474;-68
2023/04/12 09:48:39;;;;;;;11.93;7.47;;;8.00;99.90;;;;;;5070029;28;20045;-68
2023/04/12 09:51:06;;;;;;;10.18;7.25;;;8.00;99.90;;;;;;5067236;28;20097;-67
2023/04/12 09:53:34;;;;;;;12.05;7.63;;;8.00;99.90;;;;;;5068383;28;20067;-67
2023/04/12 09:56:02;;;;;;;10.32;7.82;;;8.00;99.90;;;;;;5068812;28;20516;-67
2023/04/12 09:58:31;;;;;;;13.73;8.52;;;8.10;99.90;;;;;;5069729;28;20052;-67
2023/04/12 10:01:02;;;;;;;10.02;7.45;;;8.10;99.90;;;;;;5067702;28;20453;-68
2023/04/12 10:03:28;;;;;;;11.18;7.70;;;8.20;99.90;;;;;;5068547;28;20079;-68
2023/04/12 10:05:54;;;;;;;11.77;7.47;;;8.40;99.90;;;;;;5067470;28;20067;-68
2023/04/12 10:08:24;;;;;;;13.30;8.25;;;8.40;99.90;;;;;;5065901;28;20036;-68
2023/04/12 10:10:52;;;;;;;10.32;7.85;;;8.60;99.90;;;;;;5059055;28;20512;-68
2023/04/12 10:13:19;;;;;;;9.27;7.20;;;8.60;99.90;;;;;;5058800;28;20059;-68
2023/04/12 10:15:48;;;;;;;7.88;7.07;;;8.70;99.90;;;;;;5059080;28;20047;-68
2023/04/12 10:18:16;;;;;;;8.43;6.80;;;8.70;99.90;;;;;;5066000;28;20040;-67
2023/04/12 10:20:44;;;;;;;9.48;7.10;;;8.70;99.90;;;;;;5069614;28;20454;-68
2023/04/12 10:23:11;;;;;;;9.98;7.43;;;8.70;99.90;;;;;;5068789;28;20436;-68
2023/04/12 10:25:41;;;;;;;10.82;7.80;;;8.80;99.90;;;;;;5067324;28;20618;-68
2023/04/12 10:28:16;;;;;;;13.13;9.40;;;8.90;99.90;;;;;;5068940;28;20047;-68
2023/04/12 10:30:41;;;;;;;12.15;8.95;;;9.10;99.90;;;;;;5070633;28;20033;-67
2023/04/12 10:33:12;;;;;;;8.63;7.10;;;9.30;99.90;;;;;;5068751;28;20047;-67
2023/04/12 10:35:47;;;;;;;9.18;7.78;;;9.30;99.90;;;;;;5068894;28;20036;-68
2023/04/12 10:38:13;;;;;;;9.50;7.32;;;9.50;99.90;;;;;;5069442;28;20044;-68
2023/04/12 10:41:05;;;;;;;8.82;6.85;;;9.80;99.90;;;;;;5069632;28;20052;-69
2023/04/12 10:43:31;;;;;;;9.35;6.28;;;10.00;99.90;;;;;;5069135;28;20123;-68
2023/04/12 10:46:02;;;;;;;6.32;5.15;;;10.10;99.90;;;;;;5068184;28;20079;-68
2023/04/12 10:48:30;;;;;;;9.10;5.05;;;10.20;99.90;;;;;;5068999;28;20042;-68
2023/04/12 10:51:26;;;;;;;10.95;5.50;;;10.20;99.90;;;;;;5068696;28;20036;-68
2023/04/12 10:53:52;;;;;;;8.88;5.50;;;10.40;99.90;;;;;;5069382;28;20375;-67
2023/04/12 10:56:48;;;;;;;9.43;5.28;;;10.40;99.90;;;;;;5068450;28;20094;-68
2023/04/12 10:59:15;;;;;;;6.88;5.43;;;10.40;99.90;;;;;;5066237;28;20041;-68
2023/04/12 11:02:01;;;;;;;9.10;6.18;;;10.40;99.90;;;;;;5065168;28;20387;-69
2023/04/12 11:04:26;;;;;;;10.93;6.10;;;10.60;99.90;;;;;;5066860;28;20105;-69
2023/04/12 11:06:52;;;;;;;9.45;5.03;;;11.30;99.90;;;;;;5069820;28;20283;-68
2023/04/12 11:09:27;;;;;;;7.35;4.32;;;11.60;99.90;;;;;;5060759;28;20033;-68
2023/04/12 11:12:04;;;;;;;7.22;4.35;;;11.70;99.90;;;;;;5066932;28;20086;-69
2023/04/12 11:14:37;;;;;;;8.82;4.88;;;11.50;99.90;;;;;;5069004;28;20040;-68
2023/04/12 11:17:12;;;;;;;8.07;4.30;;;11.60;99.90;;;;;;5064940;28;20071;-69
2023/04/12 11:19:41;;;;;;;6.72;4.35;;;11.80;99.90;;;;;;5064834;28;20028;-69
2023/04/12 11:22:11;;;;;;;8.30;5.07;;;11.40;99.90;;;;;;5066362;28;20119;-69
2023/04/12 11:24:47;;;;;;;6.75;4.85;;;11.50;99.90;;;;;;5068732;28;20094;-68
2023/04/12 11:27:17;;;;;;;11.85;4.65;;;11.80;99.90;;;;;;5048865;28;20080;-68
2023/04/12 11:29:43;;;;;;;8.20;4.88;;;12.30;99.90;;;;;;5063360;28;20033;-68
2023/04/12 11:32:12;;;;;;;7.72;4.90;;;12.50;99.90;;;;;;5044595;28;20291;-68
2023/04/12 11:34:39;;;;;;;11.23;4.40;;;12.80;99.90;;;;;;5048734;28;20048;-68
2023/04/12 11:37:08;;;;;;;6.47;3.75;;;12.90;99.90;;;;;;5068624;28;20090;-68
2023/04/12 11:39:42;;;;;;;8.02;3.85;;;12.60;99.90;;;;;;5067545;28;20517;-68
2023/04/12 11:42:16;;;;;;;15.63;3.88;;;12.50;99.90;;;;;;5067428;28;20086;-68
2023/04/12 11:44:44;;;;;;;8.40;3.42;;;12.60;99.90;;;;;;5068283;28;20037;-68
2023/04/12 11:47:20;;;;;;;6.93;3.42;;;12.60;99.90;;;;;;5047003;28;20048;-68
2023/04/12 11:49:49;;;;;;;9.38;3.47;;;12.50;99.90;;;;;;5065585;28;20036;-68
2023/04/12 11:52:16;;;;;;;9.15;4.15;;;12.40;99.90;;;;;;5066158;28;20068;-67
2023/04/12 11:54:44;;;;;;;9.43;2.85;;;12.90;99.90;;;;;;5058952;28;20357;-68
2023/04/12 11:57:12;;;;;;;10.15;3.35;;;13.00;99.90;;;;;;5072420;28;20139;-67
2023/04/12 11:59:38;;;;;;;10.00;3.20;;;12.90;99.90;;;;;;5062433;28;20408;-67
2023/04/12 12:02:06;;;;;;;6.03;3.03;;;12.60;99.90;;;;;;5056093;28;20032;-68
2023/04/12 12:04:32;;;;;;;9.05;3.03;;;12.70;99.90;;;;;;5051711;28;20135;-67
2023/04/12 12:06:59;;;;;;;9.60;3.83;;;12.40;99.90;;;;;;5054249;28;20489;-67
2023/04/12 12:09:25;;;;;;;6.45;3.92;;;12.20;99.90;;;;;;5051737;28;20045;-67
2023/04/12 12:11:55;;;;;;;10.90;2.88;;;11.90;99.90;;;;;;5052187;28;20049;-67
2023/04/12 12:14:22;;;;;;;7.43;2.80;;;12.20;99.90;;;;;;5048221;28;20179;-67
2023/04/12 12:16:55;;;;;;;13.10;3.38;;;12.60;99.90;;;;;;5066445;28;20040;-67
2023/04/12 12:19:33;;;;;;;9.80;3.40;;;12.80;99.90;;;;;;5052737;28;21013;-67
2023/04/12 12:22:27;;;;;;;11.05;2.70;;;12.70;99.90;;;;;;5051653;28;20256;-67
2023/04/12 12:24:58;;;;;;;9.30;2.70;;;12.90;99.90;;;;;;5030525;28;20044;-67
2023/04/12 12:27:36;;;;;;;9.88;2.65;;;13.20;99.90;;;;;;5047210;28;20045;-67
2023/04/12 12:30:03;;;;;;;10.63;2.92;;;13.50;99.90;;;;;;5056944;28;20123;-67
2023/04/12 12:32:33;;;;;;;9.02;2.72;;;13.70;99.90;;;;;;5052084;28;20182;-67
2023/04/12 12:34:59;;;;;;;8.63;2.53;;;14.00;99.90;;;;;;5036747;28;20305;-67
2023/04/12 12:37:27;;;;;;;6.82;2.78;;;13.90;99.90;;;;;;5052877;28;20091;-68
2023/04/12 12:40:10;;;;;;;7.22;2.33;;;13.90;99.90;;;;;;5049259;28;20409;-69
2023/04/12 12:42:36;;;;;;;6.20;2.75;;;13.60;99.90;;;;;;5051113;28;20052;-67
2023/04/12 12:45:03;;;;;;;15.20;2.63;;;13.50;99.90;;;;;;5054120;28;20037;-67
2023/04/12 12:47:30;;;;;;;9.52;3.00;;;13.90;99.90;;;;;;5057622;28;20466;-67
2023/04/12 12:49:56;;;;;;;4.43;2.22;;;13.90;99.90;;;;;;5055485;28;20104;-67
2023/04/12 12:52:22;;;;;;;12.85;3.45;;;13.80;99.90;;;;;;5056330;28;20102;-67
2023/04/12 12:54:48;;;;;;;9.73;2.63;;;13.80;99.90;;;;;;5053407;28;20407;-67
2023/04/12 12:57:14;;;;;;;11.70;3.83;;;13.80;99.90;;;;;;5055070;28;20045;-67
2023/04/12 12:59:40;;;;;;;6.35;3.15;;;13.50;99.90;;;;;;5055562;28;20064;-67